createdAt,value
2019-03-23T00:00:02.807Z,9.33
2019-03-23T00:05:05.444Z,9.33
2019-03-23T00:10:07.585Z,9.33
2019-03-23T00:15:09.717Z,9.36
2019-03-23T00:20:11.860Z,9.50
2019-03-23T00:25:14.046Z,9.57
2019-03-23T00:30:16.195Z,9.61
2019-03-23T00:35:18.773Z,9.66
2019-03-23T00:40:20.858Z,9.66
2019-03-23T00:45:23.003Z,9.69
2019-03-23T00:50:25.501Z,9.69
2019-03-23T00:55:28.015Z,9.70
2019-03-23T01:00:30.172Z,9.73
2019-03-23T01:05:32.323Z,9.74
2019-03-23T01:10:34.479Z,9.71
2019-03-23T01:15:36.577Z,9.70
2019-03-23T01:20:49.141Z,9.69
2019-03-23T01:25:42.722Z,9.69
2019-03-23T01:30:44.894Z,9.67
2019-03-23T01:35:46.993Z,9.63
2019-03-23T01:40:49.142Z,9.62
2019-03-23T01:45:51.279Z,9.58
2019-03-23T01:50:53.487Z,9.59
2019-03-23T01:55:56.052Z,9.59
2019-03-23T02:00:58.655Z,9.60
2019-03-23T02:06:00.802Z,9.63
2019-03-23T02:11:02.957Z,9.62
2019-03-23T02:16:05.062Z,9.60
2019-03-23T02:21:07.208Z,9.59
2019-03-23T02:26:09.424Z,9.55
2019-03-23T02:31:12.521Z,9.57
2019-03-23T02:36:14.669Z,9.56
2019-03-23T02:41:17.447Z,9.54
2019-03-23T02:46:19.639Z,9.52
2019-03-23T02:51:21.863Z,9.40
2019-03-23T02:56:23.978Z,9.06
2019-03-23T03:01:26.132Z,8.84
2019-03-23T03:06:28.302Z,8.65
2019-03-23T03:11:30.436Z,8.52
2019-03-23T03:16:32.586Z,8.38
2019-03-23T03:21:34.804Z,8.26
2019-03-23T03:26:37.217Z,8.20
2019-03-23T03:31:39.379Z,8.13
2019-03-23T03:36:41.957Z,8.07
2019-03-23T03:41:44.170Z,7.97
2019-03-23T03:46:46.333Z,7.90
2019-03-23T03:51:48.474Z,7.96
2019-03-23T03:56:50.920Z,8.18
2019-03-23T04:01:53.141Z,8.34
2019-03-23T04:06:55.295Z,8.44
2019-03-23T04:11:57.539Z,8.51
2019-03-23T04:16:59.718Z,8.56
2019-03-23T04:22:01.987Z,8.67
2019-03-23T04:27:04.089Z,8.75
2019-03-23T04:32:06.681Z,8.78
2019-03-23T04:37:08.795Z,8.82
2019-03-23T04:42:10.906Z,8.85
2019-03-23T04:47:13.098Z,8.90
2019-03-23T04:52:15.266Z,8.93
2019-03-23T04:57:17.420Z,8.93
2019-03-23T05:02:19.591Z,8.95
2019-03-23T05:07:21.745Z,8.96
2019-03-23T05:12:23.911Z,8.99
2019-03-23T05:17:26.069Z,9.01
2019-03-23T05:22:28.384Z,9.02
2019-03-23T05:27:30.549Z,9.05
2019-03-23T05:32:32.659Z,9.10
2019-03-23T05:37:34.754Z,9.14
2019-03-23T05:42:36.959Z,9.14
2019-03-23T05:47:39.063Z,9.17
2019-03-23T05:52:41.261Z,9.23
2019-03-23T05:57:43.369Z,9.26
2019-03-23T06:02:45.514Z,9.56
2019-03-23T06:07:47.662Z,9.39
2019-03-23T06:12:50.939Z,9.45
2019-03-23T06:17:53.227Z,9.53
2019-03-23T06:22:56.153Z,9.59
2019-03-23T06:27:58.619Z,9.58
2019-03-23T06:33:01.119Z,9.63
2019-03-23T06:38:03.294Z,9.66
2019-03-23T06:43:05.473Z,9.70
2019-03-23T06:48:07.612Z,9.71
2019-03-23T06:53:10.254Z,9.73
2019-03-23T06:58:12.490Z,9.78
2019-03-23T07:03:16.777Z,9.85
2019-03-23T07:08:31.302Z,9.92
2019-03-23T07:13:25.775Z,9.95
2019-03-23T07:18:27.958Z,9.97
2019-03-23T07:23:32.117Z,10.06
2019-03-23T07:28:34.226Z,10.12
2019-03-23T07:33:36.416Z,10.17
2019-03-23T07:38:38.915Z,10.24
2019-03-23T07:43:41.369Z,10.35
2019-03-23T07:48:43.536Z,10.39
2019-03-23T07:53:45.785Z,10.42
2019-03-23T07:58:47.949Z,10.47
2019-03-23T08:03:50.482Z,10.53
2019-03-23T08:08:52.939Z,10.64
2019-03-23T08:13:55.115Z,10.73
2019-03-23T08:18:57.731Z,10.86
2019-03-23T08:24:00.250Z,10.99
2019-03-23T08:29:03.319Z,11.13
2019-03-23T08:34:05.683Z,11.28
2019-03-23T08:39:07.866Z,11.28
2019-03-23T08:44:10.441Z,11.39
2019-03-23T08:49:12.584Z,11.33
2019-03-23T08:54:14.733Z,11.31
2019-03-23T08:59:20.191Z,11.30
2019-03-23T09:04:22.985Z,11.27
2019-03-23T09:09:25.231Z,11.35
2019-03-23T09:14:27.911Z,11.38
2019-03-23T09:19:30.146Z,11.44
2019-03-23T09:24:32.449Z,11.57
2019-03-23T09:29:34.734Z,11.51
2019-03-23T09:34:37.501Z,11.67
2019-03-23T09:39:39.969Z,11.82
2019-03-23T09:44:42.702Z,12.06
2019-03-23T09:49:45.003Z,12.39
2019-03-23T09:54:47.206Z,12.65
2019-03-23T09:59:50.653Z,12.88
2019-03-23T10:04:52.802Z,12.83
2019-03-23T10:09:54.974Z,12.89
2019-03-23T10:14:57.216Z,12.90
2019-03-23T10:19:59.657Z,12.89
2019-03-23T10:25:01.955Z,13.16
2019-03-23T10:30:04.451Z,13.28
2019-03-23T10:35:06.788Z,13.58
2019-03-23T10:40:09.005Z,13.62
2019-03-23T10:45:11.270Z,13.59
2019-03-23T10:50:13.588Z,13.79
2019-03-23T10:55:15.780Z,14.00
2019-03-23T11:00:18.092Z,14.25
2019-03-23T11:05:20.440Z,14.72
2019-03-23T11:10:22.547Z,15.00
2019-03-23T11:15:25.475Z,14.53
2019-03-23T11:20:27.556Z,14.24
2019-03-23T11:25:29.781Z,14.41
2019-03-23T11:30:32.882Z,14.41
2019-03-23T11:35:35.125Z,14.21
2019-03-23T11:40:37.306Z,14.06
2019-03-23T11:45:39.981Z,13.99
2019-03-23T11:50:42.238Z,14.13
2019-03-23T11:55:44.483Z,14.12
2019-03-23T12:00:46.633Z,13.90
2019-03-23T12:05:48.976Z,14.27
2019-03-23T12:10:51.268Z,14.01
2019-03-23T12:15:53.729Z,13.46
2019-03-23T12:20:55.961Z,13.59
2019-03-23T12:25:58.148Z,13.69
2019-03-23T12:31:00.312Z,13.70
2019-03-23T12:36:02.543Z,13.87
2019-03-23T12:41:14.213Z,14.12
2019-03-23T12:46:09.583Z,14.27
2019-03-23T12:51:11.878Z,13.95
2019-03-23T12:56:14.188Z,13.76
2019-03-23T13:01:16.719Z,13.48
2019-03-23T13:06:18.935Z,13.29
2019-03-23T13:11:24.668Z,12.98
2019-03-23T13:16:26.231Z,12.88
2019-03-23T13:21:28.885Z,12.11
2019-03-23T13:26:31.129Z,11.90
2019-03-23T13:31:35.398Z,11.82
2019-03-23T13:36:37.445Z,11.77
2019-03-23T13:41:49.442Z,11.74
2019-03-23T13:46:51.735Z,11.64
2019-03-23T13:51:54.074Z,11.69
2019-03-23T13:56:56.353Z,11.86
2019-03-23T14:01:58.679Z,12.31
2019-03-23T14:07:01.021Z,12.58
2019-03-23T14:12:03.771Z,12.60
2019-03-23T14:17:06.560Z,12.27
2019-03-23T14:22:09.044Z,12.45
2019-03-23T14:27:11.262Z,12.35
2019-03-23T14:32:13.459Z,12.34
2019-03-23T14:37:15.967Z,12.44
2019-03-23T14:42:18.201Z,12.51
2019-03-23T14:47:21.903Z,12.74
2019-03-23T14:52:24.243Z,12.87
2019-03-23T14:57:26.929Z,12.84
2019-03-23T15:02:29.330Z,12.93
2019-03-23T15:07:31.584Z,12.73
2019-03-23T15:12:34.324Z,12.73
2019-03-23T15:17:37.627Z,12.78
2019-03-23T15:22:40.142Z,12.88
2019-03-23T15:27:43.210Z,12.90
2019-03-23T15:32:45.533Z,12.90
2019-03-23T15:37:51.061Z,12.67
2019-03-23T15:42:53.194Z,12.49
2019-03-23T15:47:56.770Z,12.26
2019-03-23T15:52:59.081Z,12.20
2019-03-23T15:58:01.866Z,12.12
2019-03-23T16:03:04.456Z,12.06
2019-03-23T16:08:06.784Z,12.07
2019-03-23T16:13:09.721Z,11.96
2019-03-23T16:18:12.001Z,11.96
2019-03-23T16:23:14.734Z,11.94
2019-03-23T16:28:17.185Z,11.77
2019-03-23T16:33:19.538Z,11.74
2019-03-23T16:38:21.974Z,11.62
2019-03-23T16:43:25.330Z,11.57
2019-03-23T16:48:29.582Z,11.49
2019-03-23T16:53:31.819Z,11.39
2019-03-23T16:58:34.200Z,11.19
2019-03-23T17:03:36.499Z,11.03
2019-03-23T17:08:38.794Z,10.90
2019-03-23T17:13:41.104Z,10.84
2019-03-23T17:18:44.895Z,10.70
2019-03-23T17:23:47.283Z,10.58
2019-03-23T17:28:52.168Z,10.43
2019-03-23T17:33:54.751Z,10.27
2019-03-23T17:38:59.351Z,10.18
2019-03-23T17:44:02.022Z,10.05
2019-03-23T17:49:04.313Z,9.89
2019-03-23T17:54:07.232Z,9.70
2019-03-23T17:59:09.794Z,9.51
2019-03-23T18:04:12.046Z,9.31
2019-03-23T18:09:16.656Z,9.10
2019-03-23T18:14:26.257Z,8.93
2019-03-23T18:19:28.646Z,8.79
2019-03-23T18:24:32.545Z,8.46
2019-03-23T18:29:35.490Z,8.29
2019-03-23T18:34:37.949Z,8.13
2019-03-23T18:39:41.037Z,7.96
2019-03-23T18:44:44.332Z,7.82
2019-03-23T18:49:49.523Z,7.72
2019-03-23T18:54:52.190Z,7.57
2019-03-23T18:59:54.769Z,7.46
2019-03-23T19:04:57.613Z,7.34
2019-03-23T19:10:00.693Z,7.22
2019-03-23T19:15:04.918Z,7.10
2019-03-23T19:20:08.113Z,7.01
2019-03-23T19:25:16.097Z,6.92
2019-03-23T19:30:15.782Z,6.80
2019-03-23T19:35:21.242Z,6.71
2019-03-23T19:40:25.456Z,6.65
2019-03-23T19:45:27.998Z,6.54
2019-03-23T19:50:30.347Z,6.42
2019-03-23T19:55:33.067Z,6.34
2019-03-23T20:00:36.245Z,6.28
2019-03-23T20:05:38.968Z,6.20
2019-03-23T20:10:41.656Z,6.11
2019-03-23T20:15:44.045Z,6.03
2019-03-23T20:20:47.668Z,5.94
2019-03-23T20:25:52.874Z,5.88
2019-03-23T20:30:57.270Z,5.83
2019-03-23T20:36:01.848Z,5.76
2019-03-23T20:41:07.223Z,5.70
2019-03-23T20:46:09.405Z,5.67
2019-03-23T20:51:12.465Z,5.62
2019-03-23T20:56:14.701Z,5.57
2019-03-23T21:01:24.483Z,5.48
2019-03-23T21:06:28.323Z,5.43
2019-03-23T21:11:30.786Z,5.39
2019-03-23T21:16:33.045Z,5.34
2019-03-23T21:21:38.086Z,5.30
2019-03-23T21:26:46.457Z,5.22
2019-03-23T21:31:49.472Z,5.16
2019-03-23T21:36:51.935Z,5.12
2019-03-23T21:41:54.370Z,5.05
2019-03-23T21:47:02.773Z,5.00
2019-03-23T21:52:05.127Z,4.97
2019-03-23T21:57:07.532Z,4.93
2019-03-23T22:02:14.364Z,4.89
2019-03-23T22:07:19.879Z,4.81
2019-03-23T22:12:22.288Z,4.79
2019-03-23T22:17:24.923Z,4.80
2019-03-23T22:22:27.557Z,4.86
2019-03-23T22:27:30.226Z,4.88
2019-03-23T22:32:33.198Z,4.95
2019-03-23T22:37:37.042Z,5.01
2019-03-23T22:42:39.423Z,4.91
2019-03-23T22:47:42.631Z,4.83
2019-03-23T22:52:44.923Z,4.79
2019-03-23T22:57:47.725Z,4.72
2019-03-23T23:02:50.070Z,4.68
2019-03-23T23:07:52.700Z,4.65
2019-03-23T23:12:55.348Z,4.63
2019-03-23T23:18:00.719Z,4.57
2019-03-23T23:23:02.988Z,4.53
2019-03-23T23:28:05.888Z,4.47
2019-03-23T23:33:08.543Z,4.41
2019-03-23T23:38:11.964Z,4.36
2019-03-23T23:43:16.279Z,4.30
2019-03-23T23:48:20.130Z,4.25
2019-03-23T23:53:23.870Z,4.22
2019-03-23T23:58:27.527Z,4.18
